Bessemer, Alabama
Current Conditions -  °F | °C
As of 7:29 PM on Sunday 23 Nov 2014 (Local Time) from KBHM Reporting Station
Overcast Overcast  
Wind Chill: 62°   Ceiling: 3200
Heat Index: 62°   Visibility: 10mi
Dew Point: 57°   Wind: 15mph
Humidity: 84%   Direction: 200°SSW
Pressure: 29.65"   Gusts: 28mph
Location:  33.4°N, 86.95°W
Report Text: KBHM 240129Z 20013G24KT 10SM FEW018 BKN032 OVC048 17/14 A2965 RMK AO2 T01670139
Loading
Personal Weather Stations






























Interactive Weather Map New forecast layout! Learn more

10-Day Weather Forecast

Advertisements
Track Severe Weather on mobile